Terminal Aerodrome Forecast
Issued by NWS Brownsville, TX

Home | Current Version | Previous Version | Text Only | Print | Product List | Glossary On
Versions: 1 2 3 4 5 6 7 8 9 10 11 12 13 14 15 16 17 18 19 20 21 22 23 24 25
000
FTUS44 KBRO 201200 CCA
TAFBRO
TAF COR
KBRO 201210Z 2012/2112 12007KT P6SM FEW018 OVC035
      TEMPO 2012/2015 BKN020
     FM201600 13016G20KT P6SM OVC025
     FM201900 15016G24KT P6SM BKN035
     FM210100 13014KT P6SM SCT025 BKN100
     FM210600 15010KT P6SM OVC015=

USA.gov is the U.S. government's official web portal to all federal, state and local government web resources and services.